createdAt,value
2023-01-15T00:00:29.174Z,99092.97
2023-01-15T00:01:37.007Z,99092.94
2023-01-15T00:02:33.039Z,99092.34
2023-01-15T00:03:30.305Z,99082.00
2023-01-15T00:04:25.945Z,99081.16
2023-01-15T00:05:21.236Z,99089.38
2023-01-15T00:06:19.166Z,99081.44
2023-01-15T00:07:00.973Z,99080.84
2023-01-15T00:07:41.017Z,99071.41
2023-01-15T00:08:20.920Z,99064.56
2023-01-15T00:09:15.975Z,99076.78
2023-01-15T00:10:14.027Z,99065.69
2023-01-15T00:11:07.954Z,99072.22
2023-01-15T00:12:02.926Z,99066.53
2023-01-15T00:12:56.950Z,99072.53
2023-01-15T00:13:52.950Z,99067.53
2023-01-15T00:14:48.947Z,99065.66
2023-01-15T00:15:43.994Z,99048.50
2023-01-15T00:16:39.956Z,99066.06
2023-01-15T00:17:27.967Z,99069.53
2023-01-15T00:18:01.992Z,99064.84
2023-01-15T00:18:50.164Z,99064.84
2023-01-15T00:19:24.032Z,99070.81
2023-01-15T00:20:11.939Z,99057.91
2023-01-15T00:20:45.999Z,99051.06
2023-01-15T00:21:34.919Z,99017.38
2023-01-15T00:22:09.198Z,99036.25
2023-01-15T00:22:51.972Z,99031.69
2023-01-15T00:23:50.641Z,99026.44
2023-01-15T00:24:53.982Z,99047.28
2023-01-15T00:25:54.756Z,99036.47
2023-01-15T00:26:56.919Z,99021.56
2023-01-15T00:27:41.702Z,99041.53
2023-01-15T00:28:21.907Z,99027.97
2023-01-15T00:29:02.028Z,99037.66
2023-01-15T00:29:42.923Z,99012.69
2023-01-15T00:30:25.007Z,99018.16
2023-01-15T00:31:04.951Z,99003.59
2023-01-15T00:31:44.957Z,98997.09
2023-01-15T00:32:24.914Z,99005.91
2023-01-15T00:33:05.978Z,99016.84
2023-01-15T00:33:45.924Z,99016.06
2023-01-15T00:34:26.074Z,99018.03
2023-01-15T00:35:06.912Z,99014.78
2023-01-15T00:35:46.991Z,99025.34
2023-01-15T00:36:26.905Z,99022.56
2023-01-15T00:37:08.023Z,99028.94
2023-01-15T00:37:48.911Z,99015.56
2023-01-15T00:38:28.991Z,99022.63
2023-01-15T00:39:08.911Z,99031.34
2023-01-15T00:39:48.953Z,99004.50
2023-01-15T00:40:28.893Z,98997.88
2023-01-15T00:41:09.006Z,98997.72
2023-01-15T00:41:49.884Z,99030.16
2023-01-15T00:42:30.013Z,98997.28
2023-01-15T00:43:09.915Z,99037.41
2023-01-15T00:43:49.991Z,99026.03
2023-01-15T00:44:30.917Z,99027.16
2023-01-15T00:45:13.084Z,99014.16
2023-01-15T00:45:53.914Z,99036.25
2023-01-15T00:46:34.066Z,99025.31
2023-01-15T00:47:15.881Z,99028.56
2023-01-15T00:47:55.963Z,99014.31
2023-01-15T00:48:35.865Z,99023.78
2023-01-15T00:49:17.005Z,99040.09
2023-01-15T00:49:57.949Z,99026.16
2023-01-15T00:50:37.993Z,99027.84
2023-01-15T00:51:17.954Z,99056.00
2023-01-15T00:51:57.947Z,99044.13
2023-01-15T00:52:38.886Z,99018.06
2023-01-15T00:53:18.958Z,99031.09
2023-01-15T00:53:59.885Z,99041.66
2023-01-15T00:54:40.026Z,99037.31
2023-01-15T00:55:19.934Z,99046.88
2023-01-15T00:55:59.994Z,99048.91
2023-01-15T00:56:39.948Z,99036.63
2023-01-15T00:57:20.012Z,99033.03
2023-01-15T00:58:00.903Z,99039.81
2023-01-15T00:58:41.049Z,99035.72
2023-01-15T00:59:20.870Z,99043.59
2023-01-15T01:00:00.961Z,99035.63
2023-01-15T01:00:40.994Z,99038.97
2023-01-15T01:01:22.016Z,99048.69
2023-01-15T01:02:02.977Z,99054.97
2023-01-15T01:02:43.128Z,99047.50
2023-01-15T01:03:22.899Z,99029.13
2023-01-15T01:04:02.962Z,99037.94
2023-01-15T01:04:43.877Z,99032.53
2023-01-15T01:05:23.959Z,99028.72
2023-01-15T01:06:08.885Z,99032.94
2023-01-15T01:06:52.628Z,99020.13
2023-01-15T01:07:32.869Z,99019.94
2023-01-15T01:08:13.967Z,99001.56
2023-01-15T01:08:54.910Z,99003.50
2023-01-15T01:09:35.110Z,99018.13
2023-01-15T01:10:15.873Z,98994.25
2023-01-15T01:10:55.945Z,98996.56
2023-01-15T01:11:40.902Z,99003.19
2023-01-15T01:12:21.387Z,98995.88
2023-01-15T01:13:02.864Z,98998.81
2023-01-15T01:13:43.986Z,98996.41
2023-01-15T01:14:24.885Z,98980.56
2023-01-15T01:15:04.964Z,99004.25
2023-01-15T01:15:45.906Z,98990.50
2023-01-15T01:16:50.900Z,98981.97
2023-01-15T01:17:44.875Z,99006.72
2023-01-15T01:18:38.886Z,98987.81
2023-01-15T01:19:35.847Z,98972.03
2023-01-15T01:20:31.870Z,99010.25
2023-01-15T01:21:25.913Z,98999.97
2023-01-15T01:22:12.898Z,98999.19
2023-01-15T01:22:46.950Z,98994.19
2023-01-15T01:23:33.859Z,98996.25
2023-01-15T01:24:09.012Z,98987.44
2023-01-15T01:24:55.873Z,98961.13
2023-01-15T01:25:29.935Z,98968.16
2023-01-15T01:26:16.878Z,98958.22
2023-01-15T01:26:54.291Z,98981.78
2023-01-15T01:27:34.857Z,98971.78
2023-01-15T01:28:15.016Z,98990.56
2023-01-15T01:28:56.891Z,98986.56
2023-01-15T01:29:37.000Z,98996.47
2023-01-15T01:30:18.866Z,98973.59
2023-01-15T01:30:58.918Z,99000.03
2023-01-15T01:31:38.873Z,98999.00
2023-01-15T01:32:18.935Z,98977.84
2023-01-15T01:32:58.855Z,98994.03
2023-01-15T01:33:38.914Z,98969.56
2023-01-15T01:34:20.856Z,99002.72
2023-01-15T01:35:01.959Z,98981.00
2023-01-15T01:35:41.872Z,98994.72
2023-01-15T01:36:21.911Z,98994.94
2023-01-15T01:37:01.881Z,98995.56
2023-01-15T01:37:41.993Z,98993.69
2023-01-15T01:38:23.062Z,98980.84
2023-01-15T01:39:04.968Z,99008.56
2023-01-15T01:39:44.838Z,98993.41
2023-01-15T01:40:25.910Z,98974.38
2023-01-15T01:41:06.896Z,98989.03
2023-01-15T01:41:46.983Z,98982.41
2023-01-15T01:42:27.851Z,98977.00
2023-01-15T01:43:07.911Z,98979.38
2023-01-15T01:44:05.908Z,98956.84
2023-01-15T01:44:59.848Z,98973.47
2023-01-15T01:45:53.905Z,98954.75
2023-01-15T01:46:49.857Z,98956.72
2023-01-15T01:47:44.850Z,98942.84
2023-01-15T01:48:43.858Z,98951.63
2023-01-15T01:49:31.869Z,98954.09
2023-01-15T01:50:13.017Z,98951.38
2023-01-15T01:51:01.835Z,98962.72
2023-01-15T01:51:40.935Z,98948.41
2023-01-15T01:52:42.818Z,98937.47
2023-01-15T01:53:35.881Z,98915.91
2023-01-15T01:54:26.841Z,98945.09
2023-01-15T01:55:07.856Z,98930.41
2023-01-15T01:56:03.852Z,98911.44
2023-01-15T01:56:57.826Z,98927.16
2023-01-15T01:57:52.857Z,98947.91
2023-01-15T01:58:46.824Z,98939.22
2023-01-15T01:59:40.826Z,98934.63
2023-01-15T02:00:30.001Z,98937.16
2023-01-15T02:01:04.064Z,98928.00
2023-01-15T02:01:51.020Z,98942.84
2023-01-15T02:02:26.912Z,98941.69
2023-01-15T02:03:15.840Z,98945.94
2023-01-15T02:03:49.875Z,98939.47
2023-01-15T02:04:37.813Z,98935.69
2023-01-15T02:05:24.945Z,98904.59
2023-01-15T02:06:07.885Z,98925.06
2023-01-15T02:06:49.900Z,98925.59
2023-01-15T02:07:29.833Z,98914.13
2023-01-15T02:08:11.909Z,98924.53
2023-01-15T02:08:52.815Z,98929.22
2023-01-15T02:09:32.931Z,98935.84
2023-01-15T02:10:13.835Z,98928.72
2023-01-15T02:11:00.922Z,98933.38
2023-01-15T02:11:41.831Z,98922.09
2023-01-15T02:12:30.878Z,98921.13
2023-01-15T02:13:25.821Z,98929.97
2023-01-15T02:14:12.904Z,98924.59
2023-01-15T02:15:11.827Z,98925.47
2023-01-15T02:16:16.638Z,98904.81
2023-01-15T02:17:02.824Z,98917.75
2023-01-15T02:18:28.874Z,98913.00
2023-01-15T02:19:39.805Z,98871.44
2023-01-15T02:20:46.988Z,98921.47
2023-01-15T02:22:03.849Z,98919.66
2023-01-15T02:23:08.878Z,98919.50
2023-01-15T02:24:52.790Z,98919.84
2023-01-15T02:25:48.917Z,98922.91
2023-01-15T02:27:11.828Z,98907.13
2023-01-15T02:27:52.854Z,98893.28
2023-01-15T02:28:51.786Z,98913.22
2023-01-15T02:29:38.863Z,98911.97
2023-01-15T02:30:39.793Z,98883.53
2023-01-15T02:31:33.988Z,98879.38
2023-01-15T02:32:30.805Z,98913.44
2023-01-15T02:33:13.881Z,98906.78
2023-01-15T02:34:12.816Z,98910.88
2023-01-15T02:34:54.881Z,98901.72
2023-01-15T02:35:46.785Z,98904.25
2023-01-15T02:36:22.853Z,98905.91
2023-01-15T02:37:25.780Z,98896.97
2023-01-15T02:38:10.819Z,98900.66
2023-01-15T02:39:06.782Z,98899.59
2023-01-15T02:40:01.798Z,98904.34
2023-01-15T02:40:55.831Z,98893.78
2023-01-15T02:41:55.788Z,98886.81
2023-01-15T02:42:50.775Z,98886.41
2023-01-15T02:43:31.806Z,98880.44
2023-01-15T02:44:13.891Z,98849.72
2023-01-15T02:44:58.780Z,98868.59
2023-01-15T02:45:41.889Z,98879.03
2023-01-15T02:46:23.797Z,98871.63
2023-01-15T02:47:05.853Z,98878.63
2023-01-15T02:47:49.779Z,98871.94
2023-01-15T02:48:40.813Z,98879.09
2023-01-15T02:49:35.806Z,98867.53
2023-01-15T02:50:31.794Z,98884.22
2023-01-15T02:51:29.831Z,98881.47
2023-01-15T02:52:47.809Z,98872.84
2023-01-15T02:53:43.802Z,98860.50
2023-01-15T02:54:39.780Z,98865.19
2023-01-15T02:56:00.774Z,98835.50
2023-01-15T02:56:57.820Z,98863.03
2023-01-15T02:57:52.753Z,98859.41
2023-01-15T02:58:50.820Z,98867.13
2023-01-15T02:59:56.784Z,98841.34
2023-01-15T03:00:52.811Z,98873.03
2023-01-15T03:01:56.831Z,98873.34
2023-01-15T03:02:57.805Z,98847.59
2023-01-15T03:04:06.819Z,98851.34
2023-01-15T03:05:09.783Z,98849.41
2023-01-15T03:06:20.830Z,98862.63
2023-01-15T03:07:25.770Z,98858.25
2023-01-15T03:08:21.759Z,98873.19
2023-01-15T03:09:15.818Z,98858.41
2023-01-15T03:10:10.770Z,98832.47
2023-01-15T03:11:22.745Z,98857.03
2023-01-15T03:12:29.779Z,98848.09
2023-01-15T03:13:39.759Z,98842.75
2023-01-15T03:14:57.815Z,98847.09
2023-01-15T03:16:32.755Z,98833.44
2023-01-15T03:17:42.781Z,98851.63
2023-01-15T03:18:37.761Z,98840.31
2023-01-15T03:19:45.768Z,98856.84
2023-01-15T03:20:31.767Z,98845.34
2023-01-15T03:21:15.805Z,98851.97
2023-01-15T03:22:24.751Z,98863.03
2023-01-15T03:23:09.886Z,98851.94
2023-01-15T03:23:54.746Z,98838.19
2023-01-15T03:24:53.868Z,98856.09
2023-01-15T03:25:43.781Z,98853.53
2023-01-15T03:26:23.817Z,98856.59
2023-01-15T03:27:03.755Z,98843.84
2023-01-15T03:27:43.834Z,98850.78
2023-01-15T03:28:30.744Z,98848.56
2023-01-15T03:29:11.810Z,98828.59
2023-01-15T03:29:55.745Z,98848.78
2023-01-15T03:30:35.813Z,98856.47
2023-01-15T03:31:15.771Z,98847.72
2023-01-15T03:31:55.843Z,98830.88
2023-01-15T03:32:37.755Z,98829.28
2023-01-15T03:33:17.817Z,98843.38
2023-01-15T03:33:57.734Z,98824.78
2023-01-15T03:34:49.798Z,98831.59
2023-01-15T03:36:03.733Z,98840.69
2023-01-15T03:36:44.759Z,98827.84
2023-01-15T03:37:18.784Z,98821.84
2023-01-15T03:38:05.743Z,98827.63
2023-01-15T03:38:46.792Z,98814.44
2023-01-15T03:39:33.730Z,98798.22
2023-01-15T03:40:07.820Z,98819.22
2023-01-15T03:41:31.753Z,98821.78
2023-01-15T03:42:43.823Z,98829.34
2023-01-15T03:44:15.712Z,98826.16
2023-01-15T03:45:41.737Z,98803.88
2023-01-15T03:47:08.785Z,98787.69
2023-01-15T03:48:43.731Z,98808.44
2023-01-15T03:50:17.737Z,98816.00
2023-01-15T03:51:17.726Z,98819.25
2023-01-15T03:52:56.718Z,98820.56
2023-01-15T03:53:56.778Z,98809.78
2023-01-15T03:55:18.727Z,98785.88
2023-01-15T03:56:32.724Z,98806.50
2023-01-15T03:57:47.728Z,98819.94
2023-01-15T03:59:00.739Z,98798.56
2023-01-15T04:00:11.712Z,98797.00
2023-01-15T04:01:09.829Z,98805.56
2023-01-15T04:02:04.810Z,98808.72
2023-01-15T04:02:59.723Z,98815.91
2023-01-15T04:03:54.718Z,98806.06
2023-01-15T04:04:35.808Z,98808.78
2023-01-15T04:05:29.712Z,98800.28
2023-01-15T04:06:24.714Z,98792.66
2023-01-15T04:07:18.716Z,98823.06
2023-01-15T04:08:14.879Z,98805.88
2023-01-15T04:09:10.713Z,98787.41
2023-01-15T04:09:57.770Z,98799.16
2023-01-15T04:10:31.782Z,98806.72
2023-01-15T04:11:18.711Z,98809.03
2023-01-15T04:11:52.770Z,98817.88
2023-01-15T04:12:40.702Z,98802.59
2023-01-15T04:13:14.802Z,98806.63
2023-01-15T04:14:01.704Z,98803.19
2023-01-15T04:14:36.750Z,98789.56
2023-01-15T04:15:18.698Z,98815.00
2023-01-15T04:15:58.853Z,98795.84
2023-01-15T04:16:40.696Z,98799.91
2023-01-15T04:17:20.783Z,98801.88
2023-01-15T04:18:00.720Z,98804.38
2023-01-15T04:18:40.772Z,98791.63
2023-01-15T04:19:21.690Z,98793.88
2023-01-15T04:20:01.753Z,98785.66
2023-01-15T04:20:41.715Z,98779.78
2023-01-15T04:21:21.759Z,98782.53
2023-01-15T04:22:01.687Z,98781.53
2023-01-15T04:22:41.751Z,98806.88
2023-01-15T04:23:22.685Z,98798.91
2023-01-15T04:24:02.779Z,98772.09
2023-01-15T04:24:42.707Z,98785.78
2023-01-15T04:25:22.762Z,98795.81
2023-01-15T04:26:03.704Z,98792.19
2023-01-15T04:26:43.776Z,98778.53
2023-01-15T04:27:24.674Z,98777.59
2023-01-15T04:28:04.813Z,98787.13
2023-01-15T04:28:44.665Z,98797.22
2023-01-15T04:29:26.272Z,98772.94
2023-01-15T04:30:06.722Z,98793.19
2023-01-15T04:30:47.326Z,98765.16
2023-01-15T04:31:28.696Z,98777.97
2023-01-15T04:32:08.753Z,98778.09
2023-01-15T04:32:48.665Z,98783.44
2023-01-15T04:33:28.771Z,98771.63
2023-01-15T04:34:12.704Z,98780.75
2023-01-15T04:34:52.785Z,98781.25
2023-01-15T04:35:33.668Z,98791.63
2023-01-15T04:36:14.820Z,98801.38
2023-01-15T04:36:54.718Z,98760.22
2023-01-15T04:37:34.783Z,98787.06
2023-01-15T04:38:14.674Z,98785.19
2023-01-15T04:38:54.750Z,98765.31
2023-01-15T04:39:35.678Z,98760.78
2023-01-15T04:40:36.333Z,98779.69
2023-01-15T04:41:35.674Z,98789.50
2023-01-15T04:42:38.676Z,98787.50
2023-01-15T04:43:31.327Z,98758.41
2023-01-15T04:44:18.675Z,98751.72
2023-01-15T04:44:52.739Z,98768.53
2023-01-15T04:45:39.671Z,98757.91
2023-01-15T04:46:13.807Z,98775.44
2023-01-15T04:47:01.647Z,98773.22
2023-01-15T04:47:37.729Z,98770.78
2023-01-15T04:48:21.690Z,98774.59
2023-01-15T04:49:01.702Z,98777.97
2023-01-15T04:49:42.681Z,98759.09
2023-01-15T04:50:22.739Z,98739.66
2023-01-15T04:51:02.688Z,98765.00
2023-01-15T04:51:42.836Z,98743.88
2023-01-15T04:52:23.665Z,98759.28
2023-01-15T04:53:03.741Z,98750.31
2023-01-15T04:53:43.688Z,98772.75
2023-01-15T04:54:24.761Z,98742.19
2023-01-15T04:55:04.667Z,98744.06
2023-01-15T04:55:45.725Z,98752.06
2023-01-15T04:56:26.654Z,98750.66
2023-01-15T04:57:06.801Z,98738.84
2023-01-15T04:57:47.661Z,98754.00
2023-01-15T04:58:27.728Z,98724.38
2023-01-15T04:59:09.668Z,98737.75
2023-01-15T04:59:49.737Z,98728.97
2023-01-15T05:00:30.654Z,98733.72
2023-01-15T05:01:19.313Z,98726.13
2023-01-15T05:02:06.386Z,98749.06
2023-01-15T05:02:46.762Z,98717.66
2023-01-15T05:03:26.652Z,98733.19
2023-01-15T05:04:07.806Z,98725.38
2023-01-15T05:04:47.738Z,98746.72
2023-01-15T05:05:28.722Z,98718.31
2023-01-15T05:06:09.639Z,98733.84
2023-01-15T05:06:49.777Z,98711.03
2023-01-15T05:07:29.630Z,98715.03
2023-01-15T05:08:09.731Z,98700.28
2023-01-15T05:08:49.634Z,98727.19
2023-01-15T05:09:29.799Z,98719.25
2023-01-15T05:10:10.717Z,98728.78
2023-01-15T05:10:50.739Z,98713.03
2023-01-15T05:11:31.638Z,98719.31
2023-01-15T05:12:12.713Z,98729.13
2023-01-15T05:12:52.660Z,98718.50
2023-01-15T05:13:33.467Z,98722.00
2023-01-15T05:14:16.637Z,98726.59
2023-01-15T05:14:56.696Z,98733.84
2023-01-15T05:15:36.678Z,98712.81
2023-01-15T05:16:28.445Z,98706.78
2023-01-15T05:17:08.640Z,98721.66
2023-01-15T05:17:48.739Z,98735.28
2023-01-15T05:18:28.638Z,98725.38
2023-01-15T05:19:10.769Z,98722.22
2023-01-15T05:19:50.628Z,98715.41
2023-01-15T05:20:30.708Z,98717.13
2023-01-15T05:21:11.640Z,98712.94
2023-01-15T05:21:51.711Z,98718.84
2023-01-15T05:22:32.660Z,98718.88
2023-01-15T05:23:12.763Z,98721.41
2023-01-15T05:23:54.633Z,98694.53
2023-01-15T05:24:34.713Z,98695.38
2023-01-15T05:25:15.653Z,98694.72
2023-01-15T05:25:55.721Z,98698.66
2023-01-15T05:26:38.643Z,98706.59
2023-01-15T05:27:18.688Z,98688.97
2023-01-15T05:27:58.617Z,98694.69
2023-01-15T05:28:38.698Z,98709.38
2023-01-15T05:29:19.831Z,98680.69
2023-01-15T05:29:59.708Z,98683.97
2023-01-15T05:30:39.678Z,98695.09
2023-01-15T05:31:22.762Z,98678.66
2023-01-15T05:32:03.638Z,98700.09
2023-01-15T05:32:43.714Z,98693.41
2023-01-15T05:33:23.620Z,98698.59
2023-01-15T05:34:04.700Z,98705.84
2023-01-15T05:34:44.620Z,98667.88
2023-01-15T05:35:24.717Z,98686.63
2023-01-15T05:36:10.618Z,98703.19
2023-01-15T05:36:50.714Z,98682.72
2023-01-15T05:37:30.640Z,98685.25
2023-01-15T05:38:10.674Z,98660.22
2023-01-15T05:38:51.604Z,98696.66
2023-01-15T05:39:31.676Z,98669.75
2023-01-15T05:40:12.611Z,98679.28
2023-01-15T05:40:52.653Z,98693.69
2023-01-15T05:41:51.848Z,98691.28
2023-01-15T05:42:38.646Z,98692.66
2023-01-15T05:43:32.649Z,98700.28
2023-01-15T05:44:26.618Z,98683.56
2023-01-15T05:45:21.617Z,98674.44
2023-01-15T05:46:16.602Z,98696.47
2023-01-15T05:47:15.652Z,98679.41
2023-01-15T05:48:02.601Z,98701.41
2023-01-15T05:48:36.674Z,98688.13
2023-01-15T05:49:27.646Z,98709.34
2023-01-15T05:50:01.671Z,98691.34
2023-01-15T05:50:48.616Z,98690.59
2023-01-15T05:51:22.671Z,98682.81
2023-01-15T05:52:10.598Z,98688.41
2023-01-15T05:52:44.671Z,98700.28
2023-01-15T05:53:24.615Z,98700.06
2023-01-15T05:54:21.594Z,98706.16
2023-01-15T05:55:15.626Z,98687.81
2023-01-15T05:56:09.607Z,98679.38
2023-01-15T05:57:03.644Z,98666.41
2023-01-15T05:57:57.605Z,98701.31
2023-01-15T05:58:44.601Z,98682.75
2023-01-15T05:59:20.666Z,98699.09
2023-01-15T06:00:07.585Z,98670.06
2023-01-15T06:00:41.909Z,98687.31
2023-01-15T06:01:29.634Z,98680.50
2023-01-15T06:02:04.693Z,98656.44
2023-01-15T06:02:56.709Z,98693.41
2023-01-15T06:03:32.804Z,98705.00
2023-01-15T06:04:14.617Z,98700.06
2023-01-15T06:04:54.653Z,98699.72
2023-01-15T06:05:34.583Z,98697.94
2023-01-15T06:06:21.647Z,98692.03
2023-01-15T06:07:03.593Z,98703.72
2023-01-15T06:07:43.663Z,98687.38
2023-01-15T06:08:24.602Z,98693.59
2023-01-15T06:09:04.671Z,98695.34
2023-01-15T06:09:44.610Z,98699.81
2023-01-15T06:10:24.666Z,98706.13
2023-01-15T06:11:04.585Z,98692.13
2023-01-15T06:11:44.674Z,98700.13
2023-01-15T06:12:25.585Z,98714.84
2023-01-15T06:13:05.645Z,98690.09
2023-01-15T06:13:46.590Z,98690.84
2023-01-15T06:14:26.765Z,98681.53
2023-01-15T06:15:06.672Z,98700.22
2023-01-15T06:15:46.737Z,98691.47
2023-01-15T06:16:27.578Z,98714.59
2023-01-15T06:17:07.647Z,98707.22
2023-01-15T06:17:47.574Z,98689.91
2023-01-15T06:18:29.673Z,98697.91
2023-01-15T06:19:12.596Z,98707.63
2023-01-15T06:19:52.629Z,98703.97
2023-01-15T06:20:32.590Z,98697.16
2023-01-15T06:21:15.701Z,98692.59
2023-01-15T06:21:55.587Z,98689.78
2023-01-15T06:22:49.602Z,98701.38
2023-01-15T06:23:43.601Z,98695.53
2023-01-15T06:24:37.567Z,98690.97
2023-01-15T06:25:31.620Z,98689.31
2023-01-15T06:26:23.558Z,98695.88
2023-01-15T06:27:03.671Z,98695.47
2023-01-15T06:27:43.608Z,98691.03
2023-01-15T06:28:23.750Z,98695.41
2023-01-15T06:29:04.597Z,98708.75
2023-01-15T06:29:44.711Z,98702.53
2023-01-15T06:30:25.575Z,98696.31
2023-01-15T06:31:05.674Z,98694.91
2023-01-15T06:31:39.740Z,98707.91
2023-01-15T06:32:26.559Z,98700.53
2023-01-15T06:33:00.644Z,98703.38
2023-01-15T06:33:47.589Z,98679.31
2023-01-15T06:34:21.623Z,98647.53
2023-01-15T06:35:08.568Z,98684.28
2023-01-15T06:35:42.648Z,98700.94
2023-01-15T06:36:32.602Z,98701.81
2023-01-15T06:37:06.872Z,98680.47
2023-01-15T06:37:55.562Z,98684.41
2023-01-15T06:38:29.625Z,98672.19
2023-01-15T06:39:16.558Z,98690.16
2023-01-15T06:39:50.609Z,98708.53
2023-01-15T06:40:37.566Z,98697.84
2023-01-15T06:41:32.416Z,98699.69
2023-01-15T06:42:31.594Z,98704.84
2023-01-15T06:43:30.054Z,98686.09
2023-01-15T06:44:29.566Z,98673.34
2023-01-15T06:45:28.030Z,98683.63
2023-01-15T06:46:26.606Z,98703.28
2023-01-15T06:47:22.277Z,98689.06
2023-01-15T06:48:03.594Z,98708.53
2023-01-15T06:48:43.820Z,98715.78
2023-01-15T06:49:23.557Z,98695.28
2023-01-15T06:50:04.636Z,98692.34
2023-01-15T06:50:44.543Z,98695.53
2023-01-15T06:51:24.993Z,98688.78
2023-01-15T06:52:05.576Z,98679.66
2023-01-15T06:52:45.640Z,98695.16
2023-01-15T06:53:27.594Z,98691.56
2023-01-15T06:54:07.643Z,98698.38
2023-01-15T06:54:47.568Z,98676.50
2023-01-15T06:55:27.614Z,98691.34
2023-01-15T06:56:08.554Z,98691.72
2023-01-15T06:56:48.609Z,98686.00
2023-01-15T06:57:29.570Z,98661.34
2023-01-15T06:58:10.677Z,98683.63
2023-01-15T06:58:50.552Z,98661.56
2023-01-15T06:59:30.603Z,98690.72
2023-01-15T07:00:11.552Z,98686.78
2023-01-15T07:00:55.817Z,98684.28
2023-01-15T07:01:37.787Z,98678.50
2023-01-15T07:02:21.670Z,98682.88
2023-01-15T07:03:01.575Z,98682.66
2023-01-15T07:03:41.697Z,98679.41
2023-01-15T07:04:22.575Z,98694.06
2023-01-15T07:05:02.709Z,98694.41
2023-01-15T07:05:45.532Z,98678.88
2023-01-15T07:06:39.558Z,98682.25
2023-01-15T07:07:34.541Z,98677.16
2023-01-15T07:08:28.542Z,98686.00
2023-01-15T07:09:22.559Z,98687.38
2023-01-15T07:10:16.567Z,98664.44
2023-01-15T07:11:17.519Z,98655.81
2023-01-15T07:12:12.554Z,98685.38
2023-01-15T07:13:06.565Z,98690.41
2023-01-15T07:14:12.557Z,98682.75
2023-01-15T07:14:53.556Z,98668.00
2023-01-15T07:15:34.932Z,98664.13
2023-01-15T07:16:33.551Z,98654.34
2023-01-15T07:17:13.645Z,98683.75
2023-01-15T07:17:53.517Z,98673.28
2023-01-15T07:18:35.673Z,98685.13
2023-01-15T07:19:15.531Z,98678.16
2023-01-15T07:20:02.649Z,98685.88
2023-01-15T07:20:56.519Z,98683.31
2023-01-15T07:21:50.533Z,98676.78
2023-01-15T07:22:45.520Z,98647.75
2023-01-15T07:23:41.541Z,98660.63
2023-01-15T07:24:35.545Z,98679.38
2023-01-15T07:25:22.508Z,98671.44
2023-01-15T07:25:56.732Z,98674.69
2023-01-15T07:26:43.543Z,98671.06
2023-01-15T07:27:17.611Z,98676.31
2023-01-15T07:28:04.529Z,98678.28
2023-01-15T07:28:38.586Z,98652.47
2023-01-15T07:29:25.506Z,98640.88
2023-01-15T07:29:59.659Z,98664.63
2023-01-15T07:30:46.549Z,98661.47
2023-01-15T07:31:20.592Z,98666.97
2023-01-15T07:32:07.492Z,98658.47
2023-01-15T07:32:41.571Z,98667.91
2023-01-15T07:33:28.585Z,98677.00
2023-01-15T07:34:03.584Z,98667.53
2023-01-15T07:34:50.552Z,98684.78
2023-01-15T07:35:31.090Z,98681.91
2023-01-15T07:36:12.529Z,98667.75
2023-01-15T07:36:52.611Z,98665.84
2023-01-15T07:37:32.500Z,98676.69
2023-01-15T07:38:12.564Z,98675.34
2023-01-15T07:38:52.513Z,98664.09
2023-01-15T07:39:32.650Z,98639.63
2023-01-15T07:40:13.510Z,98667.69
2023-01-15T07:41:20.547Z,98683.56
2023-01-15T07:42:32.519Z,98659.31
2023-01-15T07:43:44.493Z,98675.88
2023-01-15T07:44:56.493Z,98678.53
2023-01-15T07:46:13.518Z,98669.91
2023-01-15T07:47:12.526Z,98662.31
2023-01-15T07:48:11.179Z,98645.44
2023-01-15T07:49:10.495Z,98648.84
2023-01-15T07:49:51.560Z,98668.31
2023-01-15T07:50:32.481Z,98658.28
2023-01-15T07:51:12.598Z,98670.66
2023-01-15T07:51:53.499Z,98652.28
2023-01-15T07:52:33.570Z,98671.53
2023-01-15T07:53:07.557Z,98674.78
2023-01-15T07:53:54.506Z,98660.00
2023-01-15T07:54:29.261Z,98652.09
2023-01-15T07:55:19.503Z,98648.19
2023-01-15T07:55:53.587Z,98649.38
2023-01-15T07:56:40.486Z,98677.59
2023-01-15T07:57:14.669Z,98668.53
2023-01-15T07:57:54.491Z,98660.63
2023-01-15T07:58:34.659Z,98648.50
2023-01-15T07:59:14.503Z,98656.41
2023-01-15T07:59:55.590Z,98666.78
2023-01-15T08:00:36.479Z,98664.44
2023-01-15T08:01:16.806Z,98658.69
2023-01-15T08:01:56.608Z,98649.31
2023-01-15T08:02:36.538Z,98630.38
2023-01-15T08:03:16.487Z,98668.78
2023-01-15T08:03:56.620Z,98645.03
2023-01-15T08:04:37.459Z,98659.41
2023-01-15T08:05:17.568Z,98629.03
2023-01-15T08:05:57.494Z,98659.78
2023-01-15T08:06:37.565Z,98659.06
2023-01-15T08:07:19.482Z,98647.13
2023-01-15T08:07:59.590Z,98661.75
2023-01-15T08:08:40.497Z,98647.13
2023-01-15T08:09:20.586Z,98649.25
2023-01-15T08:10:00.462Z,98634.81
2023-01-15T08:11:00.516Z,98651.59
2023-01-15T08:11:59.482Z,98648.25
2023-01-15T08:12:58.498Z,98669.84
2023-01-15T08:13:57.495Z,98645.88
2023-01-15T08:14:56.318Z,98680.97
2023-01-15T08:15:45.460Z,98671.53
2023-01-15T08:16:25.533Z,98647.16
2023-01-15T08:17:06.463Z,98666.03
2023-01-15T08:17:52.641Z,98643.47
2023-01-15T08:18:33.469Z,98667.03
2023-01-15T08:19:13.511Z,98667.50
2023-01-15T08:19:47.550Z,98667.44
2023-01-15T08:20:34.475Z,98660.47
2023-01-15T08:21:08.535Z,98664.59
2023-01-15T08:21:55.455Z,98672.66
2023-01-15T08:22:29.521Z,98667.91
2023-01-15T08:23:17.453Z,98659.38
2023-01-15T08:23:51.523Z,98642.69
2023-01-15T08:24:38.551Z,98649.44
2023-01-15T08:25:14.537Z,98655.66
2023-01-15T08:26:01.488Z,98657.06
2023-01-15T08:26:35.548Z,98665.66
2023-01-15T08:27:25.477Z,98661.91
2023-01-15T08:28:00.531Z,98663.31
2023-01-15T08:28:47.473Z,98637.94
2023-01-15T08:29:21.535Z,98661.00
2023-01-15T08:30:04.481Z,98643.31
2023-01-15T08:30:44.551Z,98645.75
2023-01-15T08:31:25.578Z,98663.13
2023-01-15T08:32:05.567Z,98658.53
2023-01-15T08:32:45.470Z,98665.38
2023-01-15T08:33:25.527Z,98666.91
2023-01-15T08:34:05.446Z,98656.63
2023-01-15T08:34:45.517Z,98651.75
2023-01-15T08:35:26.464Z,98666.88
2023-01-15T08:36:11.419Z,98674.34
2023-01-15T08:36:52.470Z,98634.72
2023-01-15T08:37:32.622Z,98663.75
2023-01-15T08:38:13.531Z,98660.09
2023-01-15T08:38:56.544Z,98667.81
2023-01-15T08:39:37.503Z,98662.91
2023-01-15T08:40:19.534Z,98642.81
2023-01-15T08:41:07.538Z,98670.09
2023-01-15T08:41:47.557Z,98667.28
2023-01-15T08:42:28.454Z,98658.47
2023-01-15T08:43:09.526Z,98669.28
2023-01-15T08:43:52.457Z,98668.91
2023-01-15T08:44:33.061Z,98667.06
2023-01-15T08:45:14.451Z,98664.69
2023-01-15T08:45:54.792Z,98643.66
2023-01-15T08:46:34.469Z,98655.47
2023-01-15T08:47:14.500Z,98674.34
2023-01-15T08:48:06.445Z,98663.56
2023-01-15T08:48:46.495Z,98659.69
2023-01-15T08:49:27.436Z,98645.34
2023-01-15T08:50:12.737Z,98669.84
2023-01-15T08:51:06.370Z,98664.38
2023-01-15T08:51:56.459Z,98658.16
2023-01-15T08:52:51.454Z,98662.97
2023-01-15T08:53:45.433Z,98653.06
2023-01-15T08:54:41.399Z,98653.38
2023-01-15T08:55:36.439Z,98638.53
2023-01-15T08:56:32.428Z,98666.13
2023-01-15T08:57:37.463Z,98663.91
2023-01-15T08:58:11.605Z,98662.22
2023-01-15T08:58:58.468Z,98671.19
2023-01-15T08:59:35.786Z,98647.22
2023-01-15T09:00:26.491Z,98668.16
2023-01-15T09:01:00.562Z,98645.53
2023-01-15T09:01:47.623Z,98659.03
2023-01-15T09:02:26.086Z,98670.88
2023-01-15T09:03:06.434Z,98662.13
2023-01-15T09:03:46.854Z,98671.78